sensor_id;sensor_type;location;lat;lon;timestamp;temperature;humidity
18103;DHT22;9178;51.120;6.192;2022-07-18T00:01:43;16.40;99.90
18103;DHT22;9178;51.120;6.192;2022-07-18T00:04:10;16.40;99.90
18103;DHT22;9178;51.120;6.192;2022-07-18T00:06:36;16.30;99.90
18103;DHT22;9178;51.120;6.192;2022-07-18T00:09:04;16.30;99.90
18103;DHT22;9178;51.120;6.192;2022-07-18T00:11:31;16.30;99.90
18103;DHT22;9178;51.120;6.192;2022-07-18T00:13:57;16.20;99.90
18103;DHT22;9178;51.120;6.192;2022-07-18T00:16:25;16.20;99.90
18103;DHT22;9178;51.120;6.192;2022-07-18T00:18:52;16.20;99.90
18103;DHT22;9178;51.120;6.192;2022-07-18T00:21:20;16.10;99.90
18103;DHT22;9178;51.120;6.192;2022-07-18T00:23:47;16.10;99.90
18103;DHT22;9178;51.120;6.192;2022-07-18T00:26:14;16.10;99.90
18103;DHT22;9178;51.120;6.192;2022-07-18T00:28:41;16.10;99.90
18103;DHT22;9178;51.120;6.192;2022-07-18T00:31:08;16.10;99.90
18103;DHT22;9178;51.120;6.192;2022-07-18T00:33:36;16.00;99.90
18103;DHT22;9178;51.120;6.192;2022-07-18T00:36:03;16.00;99.90
18103;DHT22;9178;51.120;6.192;2022-07-18T00:38:30;16.00;99.90
18103;DHT22;9178;51.120;6.192;2022-07-18T00:40:57;15.90;99.90
18103;DHT22;9178;51.120;6.192;2022-07-18T00:43:24;15.90;99.90
18103;DHT22;9178;51.120;6.192;2022-07-18T00:45:51;15.80;99.90
18103;DHT22;9178;51.120;6.192;2022-07-18T00:48:19;15.80;99.90
18103;DHT22;9178;51.120;6.192;2022-07-18T00:50:48;15.80;99.90
18103;DHT22;9178;51.120;6.192;2022-07-18T00:53:15;15.70;99.90
18103;DHT22;9178;51.120;6.192;2022-07-18T00:55:43;15.70;99.90
18103;DHT22;9178;51.120;6.192;2022-07-18T00:58:11;15.70;99.90
18103;DHT22;9178;51.120;6.192;2022-07-18T01:00:39;15.70;99.90
18103;DHT22;9178;51.120;6.192;2022-07-18T01:03:24;15.60;99.90
18103;DHT22;9178;51.120;6.192;2022-07-18T01:05:53;15.60;99.90
18103;DHT22;9178;51.120;6.192;2022-07-18T01:08:20;15.50;99.90
18103;DHT22;9178;51.120;6.192;2022-07-18T01:10:47;15.50;99.90
18103;DHT22;9178;51.120;6.192;2022-07-18T01:13:15;15.50;99.90
18103;DHT22;9178;51.120;6.192;2022-07-18T01:15:42;15.50;99.90
18103;DHT22;9178;51.120;6.192;2022-07-18T01:18:09;15.50;99.90
18103;DHT22;9178;51.120;6.192;2022-07-18T01:20:37;15.40;99.90
18103;DHT22;9178;51.120;6.192;2022-07-18T01:23:04;15.40;99.90
18103;DHT22;9178;51.120;6.192;2022-07-18T01:25:31;15.30;99.90
18103;DHT22;9178;51.120;6.192;2022-07-18T01:27:58;15.30;99.90
18103;DHT22;9178;51.120;6.192;2022-07-18T01:30:25;15.30;99.90
18103;DHT22;9178;51.120;6.192;2022-07-18T01:32:56;15.20;99.90
18103;DHT22;9178;51.120;6.192;2022-07-18T01:35:24;15.30;99.90
18103;DHT22;9178;51.120;6.192;2022-07-18T01:37:53;15.20;99.90
18103;DHT22;9178;51.120;6.192;2022-07-18T01:40:21;15.20;99.90
18103;DHT22;9178;51.120;6.192;2022-07-18T01:42:48;15.20;99.90
18103;DHT22;9178;51.120;6.192;2022-07-18T01:45:15;15.20;99.90
18103;DHT22;9178;51.120;6.192;2022-07-18T01:47:42;15.20;99.90
18103;DHT22;9178;51.120;6.192;2022-07-18T01:50:11;15.10;99.90
18103;DHT22;9178;51.120;6.192;2022-07-18T01:52:39;15.10;99.90
18103;DHT22;9178;51.120;6.192;2022-07-18T01:55:08;15.10;99.90
18103;DHT22;9178;51.120;6.192;2022-07-18T01:57:36;15.10;99.90
18103;DHT22;9178;51.120;6.192;2022-07-18T02:00:05;15.10;99.90
18103;DHT22;9178;51.120;6.192;2022-07-18T02:02:32;15.00;99.90
18103;DHT22;9178;51.120;6.192;2022-07-18T02:04:59;15.00;99.90
18103;DHT22;9178;51.120;6.192;2022-07-18T02:07:25;15.00;99.90
18103;DHT22;9178;51.120;6.192;2022-07-18T02:09:52;15.00;99.90
18103;DHT22;9178;51.120;6.192;2022-07-18T02:12:21;14.90;99.90
18103;DHT22;9178;51.120;6.192;2022-07-18T02:14:48;14.90;99.90
18103;DHT22;9178;51.120;6.192;2022-07-18T02:17:15;14.90;99.90
18103;DHT22;9178;51.120;6.192;2022-07-18T02:19:41;14.90;99.90
18103;DHT22;9178;51.120;6.192;2022-07-18T02:22:09;14.90;99.90
18103;DHT22;9178;51.120;6.192;2022-07-18T02:24:36;14.90;99.90
18103;DHT22;9178;51.120;6.192;2022-07-18T02:27:03;14.90;99.90
18103;DHT22;9178;51.120;6.192;2022-07-18T02:29:31;14.90;99.90
18103;DHT22;9178;51.120;6.192;2022-07-18T02:31:58;14.80;99.90
18103;DHT22;9178;51.120;6.192;2022-07-18T02:34:25;14.80;99.90
18103;DHT22;9178;51.120;6.192;2022-07-18T02:36:52;14.90;99.90
18103;DHT22;9178;51.120;6.192;2022-07-18T02:39:19;14.80;99.90
18103;DHT22;9178;51.120;6.192;2022-07-18T02:41:46;14.90;99.90
18103;DHT22;9178;51.120;6.192;2022-07-18T02:44:13;14.90;99.90
18103;DHT22;9178;51.120;6.192;2022-07-18T02:46:42;14.90;99.90
18103;DHT22;9178;51.120;6.192;2022-07-18T02:49:08;14.80;99.90
18103;DHT22;9178;51.120;6.192;2022-07-18T02:51:35;14.90;99.90
18103;DHT22;9178;51.120;6.192;2022-07-18T02:54:02;14.90;99.90
18103;DHT22;9178;51.120;6.192;2022-07-18T02:56:29;14.80;99.90
18103;DHT22;9178;51.120;6.192;2022-07-18T02:58:56;14.80;99.90
18103;DHT22;9178;51.120;6.192;2022-07-18T03:01:23;14.80;99.90
18103;DHT22;9178;51.120;6.192;2022-07-18T03:03:51;14.70;99.90
18103;DHT22;9178;51.120;6.192;2022-07-18T03:06:18;14.70;99.90
18103;DHT22;9178;51.120;6.192;2022-07-18T03:08:45;14.70;99.90
18103;DHT22;9178;51.120;6.192;2022-07-18T03:11:11;14.70;99.90
18103;DHT22;9178;51.120;6.192;2022-07-18T03:13:38;14.70;99.90
18103;DHT22;9178;51.120;6.192;2022-07-18T03:16:05;14.70;99.90
18103;DHT22;9178;51.120;6.192;2022-07-18T03:18:32;14.70;99.90
18103;DHT22;9178;51.120;6.192;2022-07-18T03:21:00;14.70;99.90
18103;DHT22;9178;51.120;6.192;2022-07-18T03:23:27;14.70;99.90
18103;DHT22;9178;51.120;6.192;2022-07-18T03:25:54;14.60;99.90
18103;DHT22;9178;51.120;6.192;2022-07-18T03:28:20;14.60;99.90
18103;DHT22;9178;51.120;6.192;2022-07-18T03:30:47;14.60;99.90
18103;DHT22;9178;51.120;6.192;2022-07-18T03:33:14;14.60;99.90
18103;DHT22;9178;51.120;6.192;2022-07-18T03:35:41;14.60;99.90
18103;DHT22;9178;51.120;6.192;2022-07-18T03:38:09;14.60;99.90
18103;DHT22;9178;51.120;6.192;2022-07-18T03:40:36;14.60;99.90
18103;DHT22;9178;51.120;6.192;2022-07-18T03:43:03;14.60;99.90
18103;DHT22;9178;51.120;6.192;2022-07-18T03:45:29;14.60;99.90
18103;DHT22;9178;51.120;6.192;2022-07-18T03:47:56;14.60;99.90
18103;DHT22;9178;51.120;6.192;2022-07-18T03:50:23;14.60;99.90
18103;DHT22;9178;51.120;6.192;2022-07-18T03:52:50;14.60;99.90
18103;DHT22;9178;51.120;6.192;2022-07-18T03:55:18;14.60;99.90
18103;DHT22;9178;51.120;6.192;2022-07-18T03:57:45;14.70;99.90
18103;DHT22;9178;51.120;6.192;2022-07-18T04:00:13;14.70;99.90
18103;DHT22;9178;51.120;6.192;2022-07-18T04:02:40;14.70;99.90
18103;DHT22;9178;51.120;6.192;2022-07-18T04:05:08;14.70;99.90
18103;DHT22;9178;51.120;6.192;2022-07-18T04:07:35;14.70;99.90
18103;DHT22;9178;51.120;6.192;2022-07-18T04:10:04;14.70;99.90
18103;DHT22;9178;51.120;6.192;2022-07-18T04:12:32;14.70;99.90
18103;DHT22;9178;51.120;6.192;2022-07-18T04:15:00;14.70;99.90
18103;DHT22;9178;51.120;6.192;2022-07-18T04:17:28;14.80;99.90
18103;DHT22;9178;51.120;6.192;2022-07-18T04:19:55;14.80;99.90
18103;DHT22;9178;51.120;6.192;2022-07-18T04:22:21;14.70;99.90
18103;DHT22;9178;51.120;6.192;2022-07-18T04:24:48;14.80;99.90
18103;DHT22;9178;51.120;6.192;2022-07-18T04:27:15;14.80;99.90
18103;DHT22;9178;51.120;6.192;2022-07-18T04:29:43;14.70;99.90
18103;DHT22;9178;51.120;6.192;2022-07-18T04:32:10;14.70;99.90
18103;DHT22;9178;51.120;6.192;2022-07-18T04:34:37;14.70;99.90
18103;DHT22;9178;51.120;6.192;2022-07-18T04:37:03;14.70;99.90
18103;DHT22;9178;51.120;6.192;2022-07-18T04:39:30;14.80;99.90
18103;DHT22;9178;51.120;6.192;2022-07-18T04:41:57;14.80;99.90
18103;DHT22;9178;51.120;6.192;2022-07-18T04:44:24;14.90;99.90
18103;DHT22;9178;51.120;6.192;2022-07-18T04:46:52;15.00;99.90
18103;DHT22;9178;51.120;6.192;2022-07-18T04:49:19;15.00;99.90
18103;DHT22;9178;51.120;6.192;2022-07-18T04:51:46;15.10;99.90
18103;DHT22;9178;51.120;6.192;2022-07-18T04:54:12;15.20;99.90
18103;DHT22;9178;51.120;6.192;2022-07-18T04:56:39;15.20;99.90
18103;DHT22;9178;51.120;6.192;2022-07-18T04:59:06;15.20;99.90
18103;DHT22;9178;51.120;6.192;2022-07-18T05:01:33;15.20;99.90
18103;DHT22;9178;51.120;6.192;2022-07-18T05:04:02;15.20;99.90
18103;DHT22;9178;51.120;6.192;2022-07-18T05:06:29;15.30;99.90
18103;DHT22;9178;51.120;6.192;2022-07-18T05:08:56;15.30;99.90
18103;DHT22;9178;51.120;6.192;2022-07-18T05:11:23;15.40;99.90
18103;DHT22;9178;51.120;6.192;2022-07-18T05:13:49;15.40;99.90
18103;DHT22;9178;51.120;6.192;2022-07-18T05:16:16;15.40;99.90
18103;DHT22;9178;51.120;6.192;2022-07-18T05:18:43;15.50;99.90
18103;DHT22;9178;51.120;6.192;2022-07-18T05:21:11;15.60;99.90
18103;DHT22;9178;51.120;6.192;2022-07-18T05:23:38;15.60;99.90
18103;DHT22;9178;51.120;6.192;2022-07-18T05:26:05;15.70;99.90
18103;DHT22;9178;51.120;6.192;2022-07-18T05:28:32;15.80;99.90
18103;DHT22;9178;51.120;6.192;2022-07-18T05:30:59;15.90;99.90
18103;DHT22;9178;51.120;6.192;2022-07-18T05:33:26;15.90;99.90
18103;DHT22;9178;51.120;6.192;2022-07-18T05:35:52;16.00;99.90
18103;DHT22;9178;51.120;6.192;2022-07-18T05:38:21;16.00;99.90
18103;DHT22;9178;51.120;6.192;2022-07-18T05:40:47;16.10;99.90
18103;DHT22;9178;51.120;6.192;2022-07-18T05:43:14;16.20;99.90
18103;DHT22;9178;51.120;6.192;2022-07-18T05:45:41;16.30;99.90
18103;DHT22;9178;51.120;6.192;2022-07-18T05:48:08;16.30;99.90
18103;DHT22;9178;51.120;6.192;2022-07-18T05:50:35;16.30;99.90
18103;DHT22;9178;51.120;6.192;2022-07-18T05:53:02;16.40;99.90
18103;DHT22;9178;51.120;6.192;2022-07-18T05:55:30;16.50;99.90
18103;DHT22;9178;51.120;6.192;2022-07-18T05:57:57;16.50;99.90
18103;DHT22;9178;51.120;6.192;2022-07-18T06:00:24;16.60;99.90
18103;DHT22;9178;51.120;6.192;2022-07-18T06:02:51;16.70;99.90
18103;DHT22;9178;51.120;6.192;2022-07-18T06:05:18;16.80;99.90
18103;DHT22;9178;51.120;6.192;2022-07-18T06:07:45;16.90;99.90
18103;DHT22;9178;51.120;6.192;2022-07-18T06:10:12;17.00;99.90
18103;DHT22;9178;51.120;6.192;2022-07-18T06:12:40;17.10;99.90
18103;DHT22;9178;51.120;6.192;2022-07-18T06:15:07;17.20;99.90
18103;DHT22;9178;51.120;6.192;2022-07-18T06:17:34;17.30;99.90
18103;DHT22;9178;51.120;6.192;2022-07-18T06:20:02;17.40;99.90
18103;DHT22;9178;51.120;6.192;2022-07-18T06:22:30;17.50;99.90
18103;DHT22;9178;51.120;6.192;2022-07-18T06:24:57;17.60;99.90
18103;DHT22;9178;51.120;6.192;2022-07-18T06:27:24;17.70;99.90
18103;DHT22;9178;51.120;6.192;2022-07-18T06:29:52;17.80;99.90
18103;DHT22;9178;51.120;6.192;2022-07-18T06:32:19;17.90;99.90
18103;DHT22;9178;51.120;6.192;2022-07-18T06:34:45;18.10;99.90
18103;DHT22;9178;51.120;6.192;2022-07-18T06:37:12;18.20;99.90
18103;DHT22;9178;51.120;6.192;2022-07-18T06:39:39;18.30;99.90
18103;DHT22;9178;51.120;6.192;2022-07-18T06:42:06;18.40;99.90
18103;DHT22;9178;51.120;6.192;2022-07-18T06:44:33;18.60;99.90
18103;DHT22;9178;51.120;6.192;2022-07-18T06:47:01;18.70;99.90
18103;DHT22;9178;51.120;6.192;2022-07-18T06:49:28;18.90;99.90
18103;DHT22;9178;51.120;6.192;2022-07-18T06:51:54;19.00;99.90
18103;DHT22;9178;51.120;6.192;2022-07-18T06:54:21;19.10;99.90
18103;DHT22;9178;51.120;6.192;2022-07-18T06:56:53;19.10;99.90
18103;DHT22;9178;51.120;6.192;2022-07-18T06:59:19;19.20;99.90
18103;DHT22;9178;51.120;6.192;2022-07-18T07:01:46;19.30;99.90
18103;DHT22;9178;51.120;6.192;2022-07-18T07:04:14;19.30;99.90
18103;DHT22;9178;51.120;6.192;2022-07-18T07:06:41;19.40;99.90
18103;DHT22;9178;51.120;6.192;2022-07-18T07:09:08;19.50;99.90
18103;DHT22;9178;51.120;6.192;2022-07-18T07:11:35;19.60;99.90
18103;DHT22;9178;51.120;6.192;2022-07-18T07:14:02;19.70;99.90
18103;DHT22;9178;51.120;6.192;2022-07-18T07:16:28;19.90;99.90
18103;DHT22;9178;51.120;6.192;2022-07-18T07:18:55;20.20;99.90
18103;DHT22;9178;51.120;6.192;2022-07-18T07:21:23;20.50;99.90
18103;DHT22;9178;51.120;6.192;2022-07-18T07:23:50;20.90;99.90
18103;DHT22;9178;51.120;6.192;2022-07-18T07:26:17;21.30;99.90
18103;DHT22;9178;51.120;6.192;2022-07-18T07:28:44;21.60;99.90
18103;DHT22;9178;51.120;6.192;2022-07-18T07:31:11;21.90;99.90
18103;DHT22;9178;51.120;6.192;2022-07-18T07:33:38;22.30;99.90
18103;DHT22;9178;51.120;6.192;2022-07-18T07:36:05;22.60;99.90
18103;DHT22;9178;51.120;6.192;2022-07-18T07:38:34;22.80;99.90
18103;DHT22;9178;51.120;6.192;2022-07-18T07:41:01;23.00;99.90
18103;DHT22;9178;51.120;6.192;2022-07-18T07:43:28;23.20;99.90
18103;DHT22;9178;51.120;6.192;2022-07-18T07:45:54;23.50;99.90
18103;DHT22;9178;51.120;6.192;2022-07-18T07:48:21;23.80;99.90
18103;DHT22;9178;51.120;6.192;2022-07-18T07:50:48;24.10;99.90
18103;DHT22;9178;51.120;6.192;2022-07-18T07:53:16;24.40;99.90
18103;DHT22;9178;51.120;6.192;2022-07-18T07:55:44;24.60;99.90
18103;DHT22;9178;51.120;6.192;2022-07-18T07:58:11;24.90;99.90
18103;DHT22;9178;51.120;6.192;2022-07-18T08:00:38;25.30;99.90
18103;DHT22;9178;51.120;6.192;2022-07-18T08:03:06;25.60;99.90
18103;DHT22;9178;51.120;6.192;2022-07-18T08:05:35;26.00;99.90
18103;DHT22;9178;51.120;6.192;2022-07-18T08:08:03;26.30;99.90
18103;DHT22;9178;51.120;6.192;2022-07-18T08:10:30;26.70;99.90
18103;DHT22;9178;51.120;6.192;2022-07-18T08:12:58;27.10;99.80
18103;DHT22;9178;51.120;6.192;2022-07-18T08:15:25;27.50;97.80
18103;DHT22;9178;51.120;6.192;2022-07-18T08:17:53;27.80;96.20
18103;DHT22;9178;51.120;6.192;2022-07-18T08:20:20;28.10;97.20
18103;DHT22;9178;51.120;6.192;2022-07-18T08:22:55;28.20;96.90
18103;DHT22;9178;51.120;6.192;2022-07-18T08:25:23;28.40;93.10
18103;DHT22;9178;51.120;6.192;2022-07-18T08:27:50;28.60;91.80
18103;DHT22;9178;51.120;6.192;2022-07-18T08:30:18;29.00;88.60
18103;DHT22;9178;51.120;6.192;2022-07-18T08:32:45;29.40;87.60
18103;DHT22;9178;51.120;6.192;2022-07-18T08:35:12;29.80;85.40
18103;DHT22;9178;51.120;6.192;2022-07-18T08:37:39;30.10;85.10
18103;DHT22;9178;51.120;6.192;2022-07-18T08:40:07;30.30;84.90
18103;DHT22;9178;51.120;6.192;2022-07-18T08:42:34;30.40;79.90
18103;DHT22;9178;51.120;6.192;2022-07-18T08:45:02;30.70;71.00
18103;DHT22;9178;51.120;6.192;2022-07-18T08:47:31;30.80;69.90
18103;DHT22;9178;51.120;6.192;2022-07-18T08:49:59;31.10;64.10
18103;DHT22;9178;51.120;6.192;2022-07-18T08:52:27;31.30;63.50
18103;DHT22;9178;51.120;6.192;2022-07-18T08:54:55;31.50;66.80
18103;DHT22;9178;51.120;6.192;2022-07-18T08:57:22;31.60;69.90
18103;DHT22;9178;51.120;6.192;2022-07-18T08:59:49;31.90;69.20
18103;DHT22;9178;51.120;6.192;2022-07-18T09:02:16;32.10;71.20
18103;DHT22;9178;51.120;6.192;2022-07-18T09:04:45;32.40;67.90
18103;DHT22;9178;51.120;6.192;2022-07-18T09:07:23;32.50;60.30
18103;DHT22;9178;51.120;6.192;2022-07-18T09:09:52;32.60;59.80
18103;DHT22;9178;51.120;6.192;2022-07-18T09:12:20;33.00;60.50
18103;DHT22;9178;51.120;6.192;2022-07-18T09:14:47;33.20;58.30
18103;DHT22;9178;51.120;6.192;2022-07-18T09:17:15;33.50;61.10
18103;DHT22;9178;51.120;6.192;2022-07-18T09:19:58;33.90;59.10
18103;DHT22;9178;51.120;6.192;2022-07-18T09:22:27;34.20;55.50
18103;DHT22;9178;51.120;6.192;2022-07-18T09:24:58;34.40;59.50
18103;DHT22;9178;51.120;6.192;2022-07-18T09:27:27;34.40;59.50
18103;DHT22;9178;51.120;6.192;2022-07-18T09:30:21;34.50;58.70
18103;DHT22;9178;51.120;6.192;2022-07-18T09:32:50;34.50;56.20
18103;DHT22;9178;51.120;6.192;2022-07-18T09:35:21;34.70;57.50
18103;DHT22;9178;51.120;6.192;2022-07-18T09:37:53;34.80;55.10
18103;DHT22;9178;51.120;6.192;2022-07-18T09:40:22;35.20;54.50
18103;DHT22;9178;51.120;6.192;2022-07-18T09:42:50;35.40;54.30
18103;DHT22;9178;51.120;6.192;2022-07-18T09:45:22;35.40;50.10
18103;DHT22;9178;51.120;6.192;2022-07-18T09:47:51;35.50;50.60
18103;DHT22;9178;51.120;6.192;2022-07-18T09:50:25;35.80;51.40
18103;DHT22;9178;51.120;6.192;2022-07-18T09:52:57;35.90;48.80
18103;DHT22;9178;51.120;6.192;2022-07-18T09:55:24;36.20;52.40
18103;DHT22;9178;51.120;6.192;2022-07-18T09:57:57;36.50;53.30
18103;DHT22;9178;51.120;6.192;2022-07-18T10:00:28;36.50;48.10
18103;DHT22;9178;51.120;6.192;2022-07-18T10:02:56;36.60;47.40
18103;DHT22;9178;51.120;6.192;2022-07-18T10:05:26;37.00;48.70
18103;DHT22;9178;51.120;6.192;2022-07-18T10:07:54;37.20;48.50
18103;DHT22;9178;51.120;6.192;2022-07-18T10:10:21;36.90;46.20
18103;DHT22;9178;51.120;6.192;2022-07-18T10:12:51;36.80;52.60
18103;DHT22;9178;51.120;6.192;2022-07-18T10:15:20;37.00;51.40
18103;DHT22;9178;51.120;6.192;2022-07-18T10:17:48;37.50;49.50
18103;DHT22;9178;51.120;6.192;2022-07-18T10:20:16;37.90;49.60
18103;DHT22;9178;51.120;6.192;2022-07-18T10:22:45;38.10;49.70
18103;DHT22;9178;51.120;6.192;2022-07-18T10:25:13;38.20;45.80
18103;DHT22;9178;51.120;6.192;2022-07-18T10:27:51;38.60;44.30
18103;DHT22;9178;51.120;6.192;2022-07-18T10:30:29;38.70;44.90
18103;DHT22;9178;51.120;6.192;2022-07-18T10:32:57;38.80;46.70
18103;DHT22;9178;51.120;6.192;2022-07-18T10:35:58;39.20;44.70
18103;DHT22;9178;51.120;6.192;2022-07-18T10:38:26;39.20;43.30
18103;DHT22;9178;51.120;6.192;2022-07-18T10:41:07;39.20;46.00
18103;DHT22;9178;51.120;6.192;2022-07-18T10:43:40;39.50;42.00
18103;DHT22;9178;51.120;6.192;2022-07-18T10:46:08;39.70;41.60
18103;DHT22;9178;51.120;6.192;2022-07-18T10:48:55;40.00;43.10
18103;DHT22;9178;51.120;6.192;2022-07-18T10:51:33;40.10;41.40
18103;DHT22;9178;51.120;6.192;2022-07-18T10:54:06;40.30;41.80
18103;DHT22;9178;51.120;6.192;2022-07-18T10:57:09;40.20;40.80
18103;DHT22;9178;51.120;6.192;2022-07-18T10:59:37;40.50;39.40
18103;DHT22;9178;51.120;6.192;2022-07-18T11:02:06;40.60;40.70
18103;DHT22;9178;51.120;6.192;2022-07-18T11:04:38;41.00;37.50
18103;DHT22;9178;51.120;6.192;2022-07-18T11:07:13;41.20;41.00
18103;DHT22;9178;51.120;6.192;2022-07-18T11:09:44;41.40;40.00
18103;DHT22;9178;51.120;6.192;2022-07-18T11:12:18;41.60;37.70
18103;DHT22;9178;51.120;6.192;2022-07-18T11:14:59;41.50;39.00
18103;DHT22;9178;51.120;6.192;2022-07-18T11:17:56;41.70;38.00
18103;DHT22;9178;51.120;6.192;2022-07-18T11:20:29;41.70;38.20
18103;DHT22;9178;51.120;6.192;2022-07-18T11:22:56;41.80;36.40
18103;DHT22;9178;51.120;6.192;2022-07-18T11:25:26;41.90;38.90
18103;DHT22;9178;51.120;6.192;2022-07-18T11:27:54;42.10;34.70
18103;DHT22;9178;51.120;6.192;2022-07-18T11:30:22;42.00;36.10
18103;DHT22;9178;51.120;6.192;2022-07-18T11:32:49;42.10;38.10
18103;DHT22;9178;51.120;6.192;2022-07-18T11:35:21;42.20;35.50
18103;DHT22;9178;51.120;6.192;2022-07-18T11:37:50;42.40;36.60
18103;DHT22;9178;51.120;6.192;2022-07-18T11:40:17;42.70;37.30
18103;DHT22;9178;51.120;6.192;2022-07-18T11:42:46;42.80;36.00
18103;DHT22;9178;51.120;6.192;2022-07-18T11:45:14;42.70;37.00
18103;DHT22;9178;51.120;6.192;2022-07-18T11:47:46;42.60;37.30
18103;DHT22;9178;51.120;6.192;2022-07-18T11:50:13;42.60;36.90
18103;DHT22;9178;51.120;6.192;2022-07-18T11:52:41;42.60;33.40
18103;DHT22;9178;51.120;6.192;2022-07-18T11:55:10;42.50;34.80
18103;DHT22;9178;51.120;6.192;2022-07-18T11:57:37;42.50;36.00
18103;DHT22;9178;51.120;6.192;2022-07-18T12:00:17;42.60;35.50
18103;DHT22;9178;51.120;6.192;2022-07-18T12:03:03;42.60;34.90
18103;DHT22;9178;51.120;6.192;2022-07-18T12:05:32;42.60;33.60
18103;DHT22;9178;51.120;6.192;2022-07-18T12:07:59;42.60;34.00
18103;DHT22;9178;51.120;6.192;2022-07-18T12:10:26;42.50;35.10
18103;DHT22;9178;51.120;6.192;2022-07-18T12:12:53;42.80;34.80
18103;DHT22;9178;51.120;6.192;2022-07-18T12:15:22;42.90;34.00
18103;DHT22;9178;51.120;6.192;2022-07-18T12:17:49;43.00;34.30
18103;DHT22;9178;51.120;6.192;2022-07-18T12:20:18;43.00;33.00
18103;DHT22;9178;51.120;6.192;2022-07-18T12:23:05;42.90;34.50
18103;DHT22;9178;51.120;6.192;2022-07-18T12:25:40;43.00;32.00
18103;DHT22;9178;51.120;6.192;2022-07-18T12:28:14;42.90;36.10
18103;DHT22;9178;51.120;6.192;2022-07-18T12:30:43;43.00;34.60
18103;DHT22;9178;51.120;6.192;2022-07-18T12:33:10;43.10;34.00
18103;DHT22;9178;51.120;6.192;2022-07-18T12:35:37;43.10;32.00
18103;DHT22;9178;51.120;6.192;2022-07-18T12:38:05;43.30;32.20
18103;DHT22;9178;51.120;6.192;2022-07-18T12:40:41;43.30;32.30
18103;DHT22;9178;51.120;6.192;2022-07-18T12:43:10;43.40;33.80
18103;DHT22;9178;51.120;6.192;2022-07-18T12:45:37;43.30;33.60
18103;DHT22;9178;51.120;6.192;2022-07-18T12:48:08;42.70;32.00
18103;DHT22;9178;51.120;6.192;2022-07-18T12:50:37;42.80;33.30
18103;DHT22;9178;51.120;6.192;2022-07-18T12:53:04;43.10;33.20
18103;DHT22;9178;51.120;6.192;2022-07-18T12:55:31;43.10;32.50
18103;DHT22;9178;51.120;6.192;2022-07-18T12:57:58;43.10;34.00
18103;DHT22;9178;51.120;6.192;2022-07-18T13:00:26;43.50;32.00
18103;DHT22;9178;51.120;6.192;2022-07-18T13:02:52;43.60;31.40
18103;DHT22;9178;51.120;6.192;2022-07-18T13:05:22;43.80;29.80
18103;DHT22;9178;51.120;6.192;2022-07-18T13:07:49;43.60;33.50
18103;DHT22;9178;51.120;6.192;2022-07-18T13:10:16;43.50;34.20
18103;DHT22;9178;51.120;6.192;2022-07-18T13:12:43;43.50;32.60
18103;DHT22;9178;51.120;6.192;2022-07-18T13:15:10;43.50;34.40
18103;DHT22;9178;51.120;6.192;2022-07-18T13:17:37;43.60;33.50
18103;DHT22;9178;51.120;6.192;2022-07-18T13:20:04;44.00;32.10
18103;DHT22;9178;51.120;6.192;2022-07-18T13:22:33;44.00;34.00
18103;DHT22;9178;51.120;6.192;2022-07-18T13:25:05;44.20;32.20
18103;DHT22;9178;51.120;6.192;2022-07-18T13:27:32;44.10;33.60
18103;DHT22;9178;51.120;6.192;2022-07-18T13:29:59;44.10;32.20
18103;DHT22;9178;51.120;6.192;2022-07-18T13:32:28;44.10;34.00
18103;DHT22;9178;51.120;6.192;2022-07-18T13:34:55;44.40;30.50
18103;DHT22;9178;51.120;6.192;2022-07-18T13:37:22;44.60;29.60
18103;DHT22;9178;51.120;6.192;2022-07-18T13:39:50;44.60;32.20
18103;DHT22;9178;51.120;6.192;2022-07-18T13:42:17;44.80;30.80
18103;DHT22;9178;51.120;6.192;2022-07-18T13:44:44;44.60;31.70
18103;DHT22;9178;51.120;6.192;2022-07-18T13:47:11;44.50;32.20
18103;DHT22;9178;51.120;6.192;2022-07-18T13:49:38;44.20;33.00
18103;DHT22;9178;51.120;6.192;2022-07-18T13:52:05;44.30;31.60
18103;DHT22;9178;51.120;6.192;2022-07-18T13:54:32;44.30;31.90
18103;DHT22;9178;51.120;6.192;2022-07-18T13:57:01;44.30;33.80
18103;DHT22;9178;51.120;6.192;2022-07-18T13:59:27;43.80;32.10
18103;DHT22;9178;51.120;6.192;2022-07-18T14:01:54;43.70;30.00
18103;DHT22;9178;51.120;6.192;2022-07-18T14:04:21;43.80;31.00
18103;DHT22;9178;51.120;6.192;2022-07-18T14:06:48;43.90;30.40
18103;DHT22;9178;51.120;6.192;2022-07-18T14:09:16;44.10;30.40
18103;DHT22;9178;51.120;6.192;2022-07-18T14:11:43;44.20;29.90
18103;DHT22;9178;51.120;6.192;2022-07-18T14:14:11;44.40;30.10
18103;DHT22;9178;51.120;6.192;2022-07-18T14:16:38;44.40;30.00
18103;DHT22;9178;51.120;6.192;2022-07-18T14:19:05;44.20;30.00
18103;DHT22;9178;51.120;6.192;2022-07-18T14:21:32;44.00;30.50
18103;DHT22;9178;51.120;6.192;2022-07-18T14:23:59;43.70;31.50
18103;DHT22;9178;51.120;6.192;2022-07-18T14:26:26;43.60;31.40
18103;DHT22;9178;51.120;6.192;2022-07-18T14:28:53;43.60;32.80
18103;DHT22;9178;51.120;6.192;2022-07-18T14:31:21;43.60;33.00
18103;DHT22;9178;51.120;6.192;2022-07-18T14:33:48;43.80;30.20
18103;DHT22;9178;51.120;6.192;2022-07-18T14:36:15;43.40;30.50
18103;DHT22;9178;51.120;6.192;2022-07-18T14:38:42;43.30;31.30
18103;DHT22;9178;51.120;6.192;2022-07-18T14:41:11;43.20;33.60
18103;DHT22;9178;51.120;6.192;2022-07-18T14:43:38;43.10;31.40
18103;DHT22;9178;51.120;6.192;2022-07-18T14:46:05;43.30;30.40
18103;DHT22;9178;51.120;6.192;2022-07-18T14:48:33;43.00;32.30
18103;DHT22;9178;51.120;6.192;2022-07-18T14:51:00;42.80;28.90
18103;DHT22;9178;51.120;6.192;2022-07-18T14:53:28;42.60;31.50
18103;DHT22;9178;51.120;6.192;2022-07-18T14:55:55;42.50;32.20
18103;DHT22;9178;51.120;6.192;2022-07-18T14:58:22;42.60;29.20
18103;DHT22;9178;51.120;6.192;2022-07-18T15:00:49;42.50;33.50
18103;DHT22;9178;51.120;6.192;2022-07-18T15:03:16;42.70;32.10
18103;DHT22;9178;51.120;6.192;2022-07-18T15:05:44;43.00;32.70
18103;DHT22;9178;51.120;6.192;2022-07-18T15:08:11;43.20;30.20
18103;DHT22;9178;51.120;6.192;2022-07-18T15:10:38;43.20;30.50
18103;DHT22;9178;51.120;6.192;2022-07-18T15:13:04;42.90;31.40
18103;DHT22;9178;51.120;6.192;2022-07-18T15:15:31;42.80;30.90
18103;DHT22;9178;51.120;6.192;2022-07-18T15:17:58;42.90;31.20
18103;DHT22;9178;51.120;6.192;2022-07-18T15:20:25;42.70;31.30
18103;DHT22;9178;51.120;6.192;2022-07-18T15:22:53;42.70;30.50
18103;DHT22;9178;51.120;6.192;2022-07-18T15:25:20;42.60;32.60
18103;DHT22;9178;51.120;6.192;2022-07-18T15:27:47;42.50;30.80
18103;DHT22;9178;51.120;6.192;2022-07-18T15:30:14;42.40;34.90
18103;DHT22;9178;51.120;6.192;2022-07-18T15:32:41;42.10;33.80
18103;DHT22;9178;51.120;6.192;2022-07-18T15:35:08;42.10;33.30
18103;DHT22;9178;51.120;6.192;2022-07-18T15:37:35;41.90;33.40
18103;DHT22;9178;51.120;6.192;2022-07-18T15:40:04;42.00;31.40
18103;DHT22;9178;51.120;6.192;2022-07-18T15:42:31;42.30;29.30
18103;DHT22;9178;51.120;6.192;2022-07-18T15:44:58;42.30;30.00
18103;DHT22;9178;51.120;6.192;2022-07-18T15:47:25;42.10;29.20
18103;DHT22;9178;51.120;6.192;2022-07-18T15:49:52;41.90;32.40
18103;DHT22;9178;51.120;6.192;2022-07-18T15:52:19;41.70;32.20